sensor_id;sensor_type;location;lat;lon;timestamp;pressure;altitude;pressure_sealevel;temperature;humidity
57050;BME280;42935;50.966;16.992;2022-11-20T00:02:59;101269.59;;;-6.88;100.00
57050;BME280;42935;50.966;16.992;2022-11-20T00:06:19;101249.16;;;-7.64;100.00
57050;BME280;42935;50.966;16.992;2022-11-20T00:09:29;101280.73;;;-7.63;100.00
57050;BME280;42935;50.966;16.992;2022-11-20T00:12:44;101275.38;;;-7.44;100.00
57050;BME280;42935;50.966;16.992;2022-11-20T00:15:57;101261.85;;;-7.55;100.00
57050;BME280;42935;50.966;16.992;2022-11-20T00:19:12;101248.03;;;-7.57;100.00
57050;BME280;42935;50.966;16.992;2022-11-20T00:22:25;101266.81;;;-7.27;100.00
57050;BME280;42935;50.966;16.992;2022-11-20T00:25:34;101265.16;;;-7.25;100.00
57050;BME280;42935;50.966;16.992;2022-11-20T00:28:56;101258.48;;;-7.29;100.00
57050;BME280;42935;50.966;16.992;2022-11-20T00:32:11;101259.25;;;-7.16;100.00
57050;BME280;42935;50.966;16.992;2022-11-20T00:35:21;101257.13;;;-7.23;100.00
57050;BME280;42935;50.966;16.992;2022-11-20T00:38:30;101264.65;;;-7.09;100.00
57050;BME280;42935;50.966;16.992;2022-11-20T00:41:39;101267.73;;;-7.22;100.00
57050;BME280;42935;50.966;16.992;2022-11-20T00:44:48;101263.51;;;-7.37;100.00
57050;BME280;42935;50.966;16.992;2022-11-20T00:47:51;101271.95;;;-7.21;100.00
57050;BME280;42935;50.966;16.992;2022-11-20T00:50:56;101270.30;;;-7.14;100.00
57050;BME280;42935;50.966;16.992;2022-11-20T00:54:00;101274.76;;;-7.35;100.00
57050;BME280;42935;50.966;16.992;2022-11-20T00:57:06;101283.43;;;-7.39;100.00
57050;BME280;42935;50.966;16.992;2022-11-20T01:00:10;101279.89;;;-7.51;100.00
57050;BME280;42935;50.966;16.992;2022-11-20T01:03:15;101276.16;;;-7.41;100.00
57050;BME280;42935;50.966;16.992;2022-11-20T01:06:22;101265.44;;;-7.43;100.00
57050;BME280;42935;50.966;16.992;2022-11-20T01:09:28;101276.48;;;-7.33;100.00
57050;BME280;42935;50.966;16.992;2022-11-20T01:12:32;101274.91;;;-7.43;100.00
57050;BME280;42935;50.966;16.992;2022-11-20T01:16:13;101277.63;;;-7.48;100.00
57050;BME280;42935;50.966;16.992;2022-11-20T01:19:20;101276.77;;;-7.62;100.00
57050;BME280;42935;50.966;16.992;2022-11-20T01:22:24;101279.09;;;-7.50;100.00
57050;BME280;42935;50.966;16.992;2022-11-20T01:25:35;101276.80;;;-7.45;100.00
57050;BME280;42935;50.966;16.992;2022-11-20T01:28:47;101271.77;;;-7.57;100.00
57050;BME280;42935;50.966;16.992;2022-11-20T01:31:53;101276.97;;;-7.57;100.00
57050;BME280;42935;50.966;16.992;2022-11-20T01:35:05;101269.65;;;-7.98;100.00
57050;BME280;42935;50.966;16.992;2022-11-20T01:38:21;101268.96;;;-7.76;100.00
57050;BME280;42935;50.966;16.992;2022-11-20T01:41:36;101273.43;;;-7.66;100.00
57050;BME280;42935;50.966;16.992;2022-11-20T01:51:52;101272.59;;;-7.59;100.00
57050;BME280;42935;50.966;16.992;2022-11-20T01:55:13;101277.43;;;-7.54;100.00
57050;BME280;42935;50.966;16.992;2022-11-20T01:58:35;101267.69;;;-7.52;100.00
57050;BME280;42935;50.966;16.992;2022-11-20T02:01:46;101271.45;;;-7.39;100.00
57050;BME280;42935;50.966;16.992;2022-11-20T02:05:18;101260.84;;;-7.50;100.00
57050;BME280;42935;50.966;16.992;2022-11-20T02:08:21;101269.48;;;-7.50;100.00
57050;BME280;42935;50.966;16.992;2022-11-20T02:11:33;101266.70;;;-7.43;100.00
57050;BME280;42935;50.966;16.992;2022-11-20T02:14:42;101264.81;;;-7.36;100.00
57050;BME280;42935;50.966;16.992;2022-11-20T02:18:00;101262.47;;;-7.42;100.00
57050;BME280;42935;50.966;16.992;2022-11-20T02:24:38;101263.66;;;-7.53;100.00
57050;BME280;42935;50.966;16.992;2022-11-20T02:27:54;101256.27;;;-7.49;100.00
57050;BME280;42935;50.966;16.992;2022-11-20T02:31:06;101257.41;;;-7.50;100.00
57050;BME280;42935;50.966;16.992;2022-11-20T02:34:24;101236.19;;;-7.62;100.00
57050;BME280;42935;50.966;16.992;2022-11-20T02:37:39;101256.95;;;-7.41;100.00
57050;BME280;42935;50.966;16.992;2022-11-20T02:40:49;101257.36;;;-7.63;100.00
57050;BME280;42935;50.966;16.992;2022-11-20T02:44:01;101253.02;;;-7.60;100.00
57050;BME280;42935;50.966;16.992;2022-11-20T02:47:22;101257.06;;;-7.55;100.00
57050;BME280;42935;50.966;16.992;2022-11-20T02:50:38;101246.63;;;-7.59;100.00
57050;BME280;42935;50.966;16.992;2022-11-20T02:53:46;101260.73;;;-7.60;100.00
57050;BME280;42935;50.966;16.992;2022-11-20T02:57:06;101261.38;;;-7.58;100.00
57050;BME280;42935;50.966;16.992;2022-11-20T03:00:12;101259.25;;;-7.55;100.00
57050;BME280;42935;50.966;16.992;2022-11-20T03:03:19;101257.52;;;-7.63;100.00
57050;BME280;42935;50.966;16.992;2022-11-20T03:06:24;101247.24;;;-7.63;100.00
57050;BME280;42935;50.966;16.992;2022-11-20T03:09:29;101244.92;;;-7.86;100.00
57050;BME280;42935;50.966;16.992;2022-11-20T03:12:35;101248.28;;;-7.83;100.00
57050;BME280;42935;50.966;16.992;2022-11-20T03:15:41;101248.29;;;-7.70;100.00
57050;BME280;42935;50.966;16.992;2022-11-20T03:18:46;101255.41;;;-7.55;100.00
57050;BME280;42935;50.966;16.992;2022-11-20T03:21:51;101234.95;;;-7.97;100.00
57050;BME280;42935;50.966;16.992;2022-11-20T03:24:56;101245.73;;;-7.77;100.00
57050;BME280;42935;50.966;16.992;2022-11-20T03:28:01;101251.16;;;-7.66;100.00
57050;BME280;42935;50.966;16.992;2022-11-20T03:31:11;101238.55;;;-7.75;100.00
57050;BME280;42935;50.966;16.992;2022-11-20T03:34:46;101247.76;;;-7.70;100.00
57050;BME280;42935;50.966;16.992;2022-11-20T03:37:52;101244.49;;;-7.68;100.00
57050;BME280;42935;50.966;16.992;2022-11-20T03:41:00;101242.37;;;-7.87;100.00
57050;BME280;42935;50.966;16.992;2022-11-20T03:44:07;101244.39;;;-7.89;100.00
57050;BME280;42935;50.966;16.992;2022-11-20T03:47:13;101251.70;;;-7.82;100.00
57050;BME280;42935;50.966;16.992;2022-11-20T03:50:17;101241.25;;;-7.84;100.00
57050;BME280;42935;50.966;16.992;2022-11-20T03:53:21;101253.25;;;-8.12;100.00
57050;BME280;42935;50.966;16.992;2022-11-20T03:56:30;101243.72;;;-8.16;100.00
57050;BME280;42935;50.966;16.992;2022-11-20T03:59:35;101252.00;;;-7.96;100.00
57050;BME280;42935;50.966;16.992;2022-11-20T04:02:39;101198.98;;;-8.25;100.00
57050;BME280;42935;50.966;16.992;2022-11-20T04:05:44;101257.41;;;-8.04;100.00
57050;BME280;42935;50.966;16.992;2022-11-20T04:08:58;101261.48;;;-8.04;100.00
57050;BME280;42935;50.966;16.992;2022-11-20T04:12:03;101263.45;;;-7.91;100.00
57050;BME280;42935;50.966;16.992;2022-11-20T04:15:08;101240.54;;;-8.15;100.00
57050;BME280;42935;50.966;16.992;2022-11-20T04:18:13;101268.41;;;-7.93;100.00
57050;BME280;42935;50.966;16.992;2022-11-20T04:21:18;101267.62;;;-7.92;100.00
57050;BME280;42935;50.966;16.992;2022-11-20T04:24:22;101266.36;;;-8.03;100.00
57050;BME280;42935;50.966;16.992;2022-11-20T04:27:26;101261.84;;;-8.03;100.00
57050;BME280;42935;50.966;16.992;2022-11-20T04:30:30;101250.89;;;-7.96;100.00
57050;BME280;42935;50.966;16.992;2022-11-20T04:33:36;101237.93;;;-8.13;100.00
57050;BME280;42935;50.966;16.992;2022-11-20T04:36:41;101258.59;;;-7.94;100.00
57050;BME280;42935;50.966;16.992;2022-11-20T04:39:45;101258.17;;;-8.02;100.00
57050;BME280;42935;50.966;16.992;2022-11-20T04:42:49;101246.22;;;-8.01;100.00
57050;BME280;42935;50.966;16.992;2022-11-20T04:45:54;101257.38;;;-8.15;100.00
57050;BME280;42935;50.966;16.992;2022-11-20T04:49:01;101253.80;;;-8.22;100.00
57050;BME280;42935;50.966;16.992;2022-11-20T04:52:05;101254.98;;;-8.48;100.00
57050;BME280;42935;50.966;16.992;2022-11-20T04:55:09;101253.47;;;-8.47;100.00
57050;BME280;42935;50.966;16.992;2022-11-20T04:58:14;101233.88;;;-8.25;100.00
57050;BME280;42935;50.966;16.992;2022-11-20T05:01:21;101241.07;;;-8.19;100.00
57050;BME280;42935;50.966;16.992;2022-11-20T05:04:26;101243.13;;;-8.24;100.00
57050;BME280;42935;50.966;16.992;2022-11-20T05:07:32;101234.57;;;-8.42;100.00
57050;BME280;42935;50.966;16.992;2022-11-20T05:10:38;101241.16;;;-8.39;100.00
57050;BME280;42935;50.966;16.992;2022-11-20T05:13:42;101231.38;;;-8.61;100.00
57050;BME280;42935;50.966;16.992;2022-11-20T05:16:47;101237.35;;;-8.57;100.00
57050;BME280;42935;50.966;16.992;2022-11-20T05:19:52;101229.77;;;-8.53;100.00
57050;BME280;42935;50.966;16.992;2022-11-20T05:22:57;101238.94;;;-8.39;100.00
57050;BME280;42935;50.966;16.992;2022-11-20T05:26:07;101236.22;;;-8.48;100.00
57050;BME280;42935;50.966;16.992;2022-11-20T05:29:12;101238.24;;;-8.44;100.00
57050;BME280;42935;50.966;16.992;2022-11-20T05:32:17;101220.29;;;-8.64;100.00
57050;BME280;42935;50.966;16.992;2022-11-20T05:35:22;101213.12;;;-8.78;100.00
57050;BME280;42935;50.966;16.992;2022-11-20T05:38:27;101218.39;;;-8.65;100.00
57050;BME280;42935;50.966;16.992;2022-11-20T05:41:32;101215.79;;;-8.53;100.00
57050;BME280;42935;50.966;16.992;2022-11-20T05:44:39;101223.70;;;-8.52;100.00
57050;BME280;42935;50.966;16.992;2022-11-20T05:47:45;101213.98;;;-8.46;100.00
57050;BME280;42935;50.966;16.992;2022-11-20T05:50:59;101211.71;;;-8.71;100.00
57050;BME280;42935;50.966;16.992;2022-11-20T05:54:35;101193.09;;;-8.81;100.00
57050;BME280;42935;50.966;16.992;2022-11-20T05:57:43;101215.16;;;-8.64;100.00
57050;BME280;42935;50.966;16.992;2022-11-20T06:00:47;101212.90;;;-8.91;100.00
57050;BME280;42935;50.966;16.992;2022-11-20T06:04:22;101204.60;;;-9.00;100.00
57050;BME280;42935;50.966;16.992;2022-11-20T06:07:27;101215.48;;;-8.80;100.00
57050;BME280;42935;50.966;16.992;2022-11-20T06:10:34;101200.69;;;-8.66;100.00
57050;BME280;42935;50.966;16.992;2022-11-20T06:13:46;101210.53;;;-8.51;100.00
57050;BME280;42935;50.966;16.992;2022-11-20T06:16:51;101211.17;;;-8.55;100.00
57050;BME280;42935;50.966;16.992;2022-11-20T06:19:56;101212.48;;;-8.74;100.00
57050;BME280;42935;50.966;16.992;2022-11-20T06:23:02;101206.15;;;-8.64;100.00
57050;BME280;42935;50.966;16.992;2022-11-20T06:26:11;101191.92;;;-8.68;100.00
57050;BME280;42935;50.966;16.992;2022-11-20T06:29:16;101193.34;;;-8.57;100.00
57050;BME280;42935;50.966;16.992;2022-11-20T06:32:21;101180.10;;;-8.57;100.00
57050;BME280;42935;50.966;16.992;2022-11-20T06:35:25;101191.30;;;-8.49;100.00
57050;BME280;42935;50.966;16.992;2022-11-20T06:38:38;101186.02;;;-8.53;100.00
57050;BME280;42935;50.966;16.992;2022-11-20T06:41:44;101173.72;;;-8.53;100.00
57050;BME280;42935;50.966;16.992;2022-11-20T06:44:54;101193.16;;;-8.48;100.00
57050;BME280;42935;50.966;16.992;2022-11-20T06:47:59;101186.09;;;-8.77;100.00
57050;BME280;42935;50.966;16.992;2022-11-20T06:51:05;101196.25;;;-8.63;100.00
57050;BME280;42935;50.966;16.992;2022-11-20T06:54:11;101196.01;;;-8.73;100.00
57050;BME280;42935;50.966;16.992;2022-11-20T06:57:18;101199.47;;;-8.88;100.00
57050;BME280;42935;50.966;16.992;2022-11-20T07:00:23;101202.48;;;-8.69;100.00
57050;BME280;42935;50.966;16.992;2022-11-20T07:03:28;101213.33;;;-8.69;100.00
57050;BME280;42935;50.966;16.992;2022-11-20T07:06:32;101216.36;;;-8.54;100.00
57050;BME280;42935;50.966;16.992;2022-11-20T07:09:37;101210.50;;;-8.59;100.00
57050;BME280;42935;50.966;16.992;2022-11-20T07:12:42;101199.31;;;-8.54;100.00
57050;BME280;42935;50.966;16.992;2022-11-20T07:15:46;101210.79;;;-8.45;100.00
57050;BME280;42935;50.966;16.992;2022-11-20T07:18:52;101210.58;;;-8.44;100.00
57050;BME280;42935;50.966;16.992;2022-11-20T07:21:57;101206.54;;;-8.34;100.00
57050;BME280;42935;50.966;16.992;2022-11-20T07:25:32;101197.52;;;-8.23;100.00
57050;BME280;42935;50.966;16.992;2022-11-20T07:28:38;101201.02;;;-8.07;100.00
57050;BME280;42935;50.966;16.992;2022-11-20T07:31:42;101189.30;;;-8.07;100.00
57050;BME280;42935;50.966;16.992;2022-11-20T07:34:48;101193.77;;;-7.87;100.00
57050;BME280;42935;50.966;16.992;2022-11-20T07:37:53;101192.17;;;-7.81;100.00
57050;BME280;42935;50.966;16.992;2022-11-20T07:40:59;101191.05;;;-7.72;100.00
57050;BME280;42935;50.966;16.992;2022-11-20T07:44:05;101187.72;;;-7.76;100.00
57050;BME280;42935;50.966;16.992;2022-11-20T07:47:10;101187.52;;;-7.52;100.00
57050;BME280;42935;50.966;16.992;2022-11-20T07:50:14;101187.61;;;-7.55;100.00
57050;BME280;42935;50.966;16.992;2022-11-20T07:53:19;101187.48;;;-7.38;100.00
57050;BME280;42935;50.966;16.992;2022-11-20T07:56:25;101177.88;;;-7.19;100.00
57050;BME280;42935;50.966;16.992;2022-11-20T07:59:30;101162.14;;;-7.14;100.00
57050;BME280;42935;50.966;16.992;2022-11-20T08:02:41;101165.10;;;-7.06;100.00
57050;BME280;42935;50.966;16.992;2022-11-20T08:05:46;101150.05;;;-6.89;100.00
57050;BME280;42935;50.966;16.992;2022-11-20T08:08:50;101146.70;;;-6.92;100.00
57050;BME280;42935;50.966;16.992;2022-11-20T08:12:26;101165.01;;;-6.70;100.00
57050;BME280;42935;50.966;16.992;2022-11-20T08:15:47;101157.41;;;-6.70;100.00
57050;BME280;42935;50.966;16.992;2022-11-20T08:18:52;101159.42;;;-6.67;100.00
57050;BME280;42935;50.966;16.992;2022-11-20T08:21:57;101162.85;;;-6.51;100.00
57050;BME280;42935;50.966;16.992;2022-11-20T08:25:03;101153.44;;;-6.37;100.00
57050;BME280;42935;50.966;16.992;2022-11-20T08:28:09;101157.77;;;-6.26;100.00
57050;BME280;42935;50.966;16.992;2022-11-20T08:31:15;101143.18;;;-6.29;100.00
57050;BME280;42935;50.966;16.992;2022-11-20T08:34:22;101143.11;;;-6.03;100.00
57050;BME280;42935;50.966;16.992;2022-11-20T08:37:27;101138.32;;;-5.89;100.00
57050;BME280;42935;50.966;16.992;2022-11-20T08:40:37;101146.70;;;-5.72;100.00
57050;BME280;42935;50.966;16.992;2022-11-20T08:43:42;101132.18;;;-5.77;100.00
57050;BME280;42935;50.966;16.992;2022-11-20T08:46:46;101146.80;;;-5.60;100.00
57050;BME280;42935;50.966;16.992;2022-11-20T08:49:52;101139.08;;;-5.55;100.00
57050;BME280;42935;50.966;16.992;2022-11-20T08:53:04;101142.98;;;-5.40;100.00
57050;BME280;42935;50.966;16.992;2022-11-20T08:56:10;101142.37;;;-5.34;100.00
57050;BME280;42935;50.966;16.992;2022-11-20T08:59:16;101138.89;;;-5.23;100.00
57050;BME280;42935;50.966;16.992;2022-11-20T09:02:51;101132.61;;;-5.18;100.00
57050;BME280;42935;50.966;16.992;2022-11-20T09:06:04;101133.50;;;-4.93;100.00
57050;BME280;42935;50.966;16.992;2022-11-20T09:09:09;101131.66;;;-4.77;100.00
57050;BME280;42935;50.966;16.992;2022-11-20T09:12:14;101129.69;;;-4.69;100.00
57050;BME280;42935;50.966;16.992;2022-11-20T09:15:19;101132.70;;;-4.55;100.00
57050;BME280;42935;50.966;16.992;2022-11-20T09:18:25;101122.47;;;-4.48;100.00
57050;BME280;42935;50.966;16.992;2022-11-20T09:21:30;101121.34;;;-4.45;100.00
57050;BME280;42935;50.966;16.992;2022-11-20T09:24:41;101122.27;;;-4.33;100.00
57050;BME280;42935;50.966;16.992;2022-11-20T09:27:57;101109.38;;;-4.30;100.00
57050;BME280;42935;50.966;16.992;2022-11-20T09:31:09;101107.59;;;-4.19;100.00
57050;BME280;42935;50.966;16.992;2022-11-20T09:34:18;101111.92;;;-4.04;100.00
57050;BME280;42935;50.966;16.992;2022-11-20T09:37:23;101110.75;;;-3.93;100.00
57050;BME280;42935;50.966;16.992;2022-11-20T09:40:29;101108.10;;;-3.89;100.00
57050;BME280;42935;50.966;16.992;2022-11-20T09:44:17;101085.30;;;-3.83;100.00
57050;BME280;42935;50.966;16.992;2022-11-20T09:57:23;101078.21;;;-3.37;100.00
57050;BME280;42935;50.966;16.992;2022-11-20T10:00:30;101069.90;;;-3.41;100.00
57050;BME280;42935;50.966;16.992;2022-11-20T10:07:01;101089.33;;;-3.11;100.00
57050;BME280;42935;50.966;16.992;2022-11-20T10:23:35;101064.30;;;-2.45;100.00
57050;BME280;42935;50.966;16.992;2022-11-20T10:26:51;101050.87;;;-2.28;100.00
57050;BME280;42935;50.966;16.992;2022-11-20T10:33:22;101041.31;;;-2.30;100.00
57050;BME280;42935;50.966;16.992;2022-11-20T10:36:36;101036.86;;;-2.15;100.00
57050;BME280;42935;50.966;16.992;2022-11-20T10:43:02;101013.91;;;-2.10;100.00
57050;BME280;42935;50.966;16.992;2022-11-20T10:46:14;101024.84;;;-1.86;99.24
57050;BME280;42935;50.966;16.992;2022-11-20T10:49:22;101028.41;;;-1.78;95.17
57050;BME280;42935;50.966;16.992;2022-11-20T11:02:24;101022.22;;;-1.25;94.10
57050;BME280;42935;50.966;16.992;2022-11-20T11:08:56;101013.20;;;-1.07;92.97
57050;BME280;42935;50.966;16.992;2022-11-20T11:12:10;101003.55;;;-0.88;92.65
57050;BME280;42935;50.966;16.992;2022-11-20T11:18:32;100997.88;;;-0.81;89.97
57050;BME280;42935;50.966;16.992;2022-11-20T11:21:37;100994.66;;;-0.75;89.97
57050;BME280;42935;50.966;16.992;2022-11-20T11:24:53;100994.09;;;-0.67;88.14
57050;BME280;42935;50.966;16.992;2022-11-20T11:31:29;100987.42;;;-0.34;85.79
57050;BME280;42935;50.966;16.992;2022-11-20T11:34:58;100981.23;;;-0.38;83.61
57050;BME280;42935;50.966;16.992;2022-11-20T11:38:16;100980.45;;;-0.20;82.50
57050;BME280;42935;50.966;16.992;2022-11-20T11:41:33;100963.38;;;0.19;83.96
57050;BME280;42935;50.966;16.992;2022-11-20T11:44:47;100957.02;;;0.29;81.43
57050;BME280;42935;50.966;16.992;2022-11-20T11:48:11;100953.15;;;0.19;81.36
57050;BME280;42935;50.966;16.992;2022-11-20T11:51:22;100944.95;;;0.46;80.82
57050;BME280;42935;50.966;16.992;2022-11-20T12:04:49;100931.09;;;0.92;80.36
57050;BME280;42935;50.966;16.992;2022-11-20T12:14:55;100918.50;;;1.05;77.48
57050;BME280;42935;50.966;16.992;2022-11-20T12:18:16;100918.45;;;0.95;75.73
57050;BME280;42935;50.966;16.992;2022-11-20T12:21:34;100919.71;;;1.07;75.58
57050;BME280;42935;50.966;16.992;2022-11-20T12:45:22;100902.00;;;1.60;73.84
57050;BME280;42935;50.966;16.992;2022-11-20T12:48:42;100913.34;;;1.94;73.57
57050;BME280;42935;50.966;16.992;2022-11-20T12:52:08;100907.74;;;2.01;72.47
57050;BME280;42935;50.966;16.992;2022-11-20T12:58:56;100901.03;;;1.23;72.70
57050;BME280;42935;50.966;16.992;2022-11-20T13:05:43;100894.05;;;1.62;76.53
57050;BME280;42935;50.966;16.992;2022-11-20T13:08:55;100882.38;;;2.03;78.71
57050;BME280;42935;50.966;16.992;2022-11-20T13:12:13;100888.23;;;2.07;77.49
57050;BME280;42935;50.966;16.992;2022-11-20T13:15:33;100879.23;;;2.20;80.31
57050;BME280;42935;50.966;16.992;2022-11-20T13:18:56;100872.75;;;2.06;80.60
57050;BME280;42935;50.966;16.992;2022-11-20T13:22:50;100862.16;;;2.50;82.31
57050;BME280;42935;50.966;16.992;2022-11-20T13:29:24;100855.38;;;2.78;78.35
57050;BME280;42935;50.966;16.992;2022-11-20T13:32:49;100850.53;;;2.71;79.19
57050;BME280;42935;50.966;16.992;2022-11-20T13:36:06;100849.20;;;2.71;79.03
57050;BME280;42935;50.966;16.992;2022-11-20T13:39:38;100851.82;;;2.88;81.49
57050;BME280;42935;50.966;16.992;2022-11-20T13:46:14;100840.00;;;2.86;81.41
57050;BME280;42935;50.966;16.992;2022-11-20T13:52:55;100820.88;;;3.03;83.58
57050;BME280;42935;50.966;16.992;2022-11-20T14:03:01;100828.76;;;2.57;80.03
57050;BME280;42935;50.966;16.992;2022-11-20T14:06:27;100828.91;;;2.80;82.31
57050;BME280;42935;50.966;16.992;2022-11-20T14:09:36;100824.06;;;2.68;83.19
57050;BME280;42935;50.966;16.992;2022-11-20T14:12:49;100830.02;;;2.81;82.02
57050;BME280;42935;50.966;16.992;2022-11-20T14:15:58;100820.24;;;2.69;81.80
57050;BME280;42935;50.966;16.992;2022-11-20T14:19:46;100816.09;;;2.61;79.69
57050;BME280;42935;50.966;16.992;2022-11-20T14:22:57;100826.81;;;1.87;77.68
57050;BME280;42935;50.966;16.992;2022-11-20T14:26:06;100816.30;;;1.90;78.32
57050;BME280;42935;50.966;16.992;2022-11-20T14:29:21;100804.92;;;1.48;81.89
57050;BME280;42935;50.966;16.992;2022-11-20T14:32:35;100781.77;;;1.30;82.66
57050;BME280;42935;50.966;16.992;2022-11-20T14:35:48;100806.78;;;1.27;83.37
57050;BME280;42935;50.966;16.992;2022-11-20T14:38:55;100800.84;;;0.77;85.66
57050;BME280;42935;50.966;16.992;2022-11-20T14:42:16;100795.51;;;0.50;88.85
57050;BME280;42935;50.966;16.992;2022-11-20T14:46:03;100809.44;;;-0.31;94.32
57050;BME280;42935;50.966;16.992;2022-11-20T14:49:15;100806.87;;;-0.30;97.59
57050;BME280;42935;50.966;16.992;2022-11-20T14:52:28;100799.00;;;-0.65;99.79
57050;BME280;42935;50.966;16.992;2022-11-20T14:55:58;100803.25;;;-1.10;100.00
57050;BME280;42935;50.966;16.992;2022-11-20T14:59:22;100815.95;;;-0.97;100.00
57050;BME280;42935;50.966;16.992;2022-11-20T15:03:14;100813.02;;;-0.81;100.00
57050;BME280;42935;50.966;16.992;2022-11-20T15:06:29;100788.73;;;-0.75;97.72
57050;BME280;42935;50.966;16.992;2022-11-20T15:09:41;100809.81;;;-0.99;99.51
57050;BME280;42935;50.966;16.992;2022-11-20T15:13:11;100813.24;;;-1.28;100.00
57050;BME280;42935;50.966;16.992;2022-11-20T15:16:21;100818.77;;;-1.70;100.00
57050;BME280;42935;50.966;16.992;2022-11-20T15:20:10;100818.20;;;-1.84;100.00
57050;BME280;42935;50.966;16.992;2022-11-20T15:23:50;100816.09;;;-2.07;100.00
57050;BME280;42935;50.966;16.992;2022-11-20T15:27:42;100823.40;;;-2.09;100.00
57050;BME280;42935;50.966;16.992;2022-11-20T15:31:24;100827.23;;;-2.13;100.00
57050;BME280;42935;50.966;16.992;2022-11-20T15:34:40;100828.55;;;-2.33;100.00
57050;BME280;42935;50.966;16.992;2022-11-20T15:37:51;100810.84;;;-2.56;100.00
57050;BME280;42935;50.966;16.992;2022-11-20T15:41:07;100816.02;;;-2.61;100.00
57050;BME280;42935;50.966;16.992;2022-11-20T15:44:54;100823.93;;;-2.69;100.00
57050;BME280;42935;50.966;16.992;2022-11-20T15:48:25;100833.34;;;-2.63;100.00
57050;BME280;42935;50.966;16.992;2022-11-20T15:51:41;100828.02;;;-2.61;100.00
57050;BME280;42935;50.966;16.992;2022-11-20T15:55:36;100827.24;;;-2.75;100.00
57050;BME280;42935;50.966;16.992;2022-11-20T15:58:50;100822.01;;;-2.82;100.00
57050;BME280;42935;50.966;16.992;2022-11-20T16:02:40;100818.29;;;-2.97;100.00
57050;BME280;42935;50.966;16.992;2022-11-20T16:05:55;100821.48;;;-2.86;100.00
57050;BME280;42935;50.966;16.992;2022-11-20T16:09:35;100824.21;;;-2.88;100.00
57050;BME280;42935;50.966;16.992;2022-11-20T16:13:24;100811.50;;;-2.92;100.00
57050;BME280;42935;50.966;16.992;2022-11-20T16:17:16;100820.83;;;-2.78;100.00
57050;BME280;42935;50.966;16.992;2022-11-20T16:21:11;100806.52;;;-2.78;100.00
57050;BME280;42935;50.966;16.992;2022-11-20T16:25:06;100813.23;;;-2.71;100.00
57050;BME280;42935;50.966;16.992;2022-11-20T16:28:54;100797.90;;;-2.84;100.00
57050;BME280;42935;50.966;16.992;2022-11-20T16:32:32;100807.61;;;-2.90;100.00
57050;BME280;42935;50.966;16.992;2022-11-20T16:36:12;100814.31;;;-2.69;100.00
57050;BME280;42935;50.966;16.992;2022-11-20T16:39:48;100814.33;;;-2.60;100.00
57050;BME280;42935;50.966;16.992;2022-11-20T16:42:53;100793.45;;;-2.93;100.00
57050;BME280;42935;50.966;16.992;2022-11-20T16:46:30;100802.59;;;-2.76;100.00
57050;BME280;42935;50.966;16.992;2022-11-20T16:49:45;100811.73;;;-2.83;100.00
57050;BME280;42935;50.966;16.992;2022-11-20T16:53:33;100813.41;;;-2.85;100.00
57050;BME280;42935;50.966;16.992;2022-11-20T16:56:45;100811.48;;;-2.89;100.00
57050;BME280;42935;50.966;16.992;2022-11-20T17:00:30;100815.69;;;-2.96;100.00
57050;BME280;42935;50.966;16.992;2022-11-20T17:03:42;100809.68;;;-3.26;100.00
57050;BME280;42935;50.966;16.992;2022-11-20T17:07:37;100809.26;;;-3.35;100.00
57050;BME280;42935;50.966;16.992;2022-11-20T17:11:16;100803.88;;;-3.34;100.00
57050;BME280;42935;50.966;16.992;2022-11-20T17:14:26;100807.04;;;-3.20;100.00
57050;BME280;42935;50.966;16.992;2022-11-20T17:18:11;100811.23;;;-3.38;100.00
57050;BME280;42935;50.966;16.992;2022-11-20T17:21:26;100815.34;;;-3.40;100.00
57050;BME280;42935;50.966;16.992;2022-11-20T17:24:42;100810.34;;;-3.50;100.00
57050;BME280;42935;50.966;16.992;2022-11-20T17:28:27;100815.87;;;-3.54;100.00
57050;BME280;42935;50.966;16.992;2022-11-20T17:32:16;100825.12;;;-3.47;100.00
57050;BME280;42935;50.966;16.992;2022-11-20T17:35:35;100840.16;;;-3.39;100.00
57050;BME280;42935;50.966;16.992;2022-11-20T17:39:24;100837.70;;;-3.40;100.00
57050;BME280;42935;50.966;16.992;2022-11-20T17:43:01;100844.72;;;-3.41;100.00
57050;BME280;42935;50.966;16.992;2022-11-20T17:46:50;100845.91;;;-3.37;100.00
57050;BME280;42935;50.966;16.992;2022-11-20T17:50:39;100835.89;;;-3.40;100.00
57050;BME280;42935;50.966;16.992;2022-11-20T17:54:26;100838.82;;;-3.24;100.00
57050;BME280;42935;50.966;16.992;2022-11-20T17:58:11;100835.97;;;-3.24;100.00
57050;BME280;42935;50.966;16.992;2022-11-20T18:02:00;100837.73;;;-3.29;100.00
57050;BME280;42935;50.966;16.992;2022-11-20T18:05:46;100820.45;;;-3.41;100.00
57050;BME280;42935;50.966;16.992;2022-11-20T18:09:30;100810.37;;;-3.47;100.00
57050;BME280;42935;50.966;16.992;2022-11-20T18:13:06;100819.16;;;-3.48;100.00
57050;BME280;42935;50.966;16.992;2022-11-20T18:16:55;100815.91;;;-3.50;100.00
57050;BME280;42935;50.966;16.992;2022-11-20T18:20:07;100822.47;;;-3.51;100.00
57050;BME280;42935;50.966;16.992;2022-11-20T18:23:18;100815.26;;;-3.46;100.00
57050;BME280;42935;50.966;16.992;2022-11-20T18:26:28;100814.63;;;-3.61;100.00
57050;BME280;42935;50.966;16.992;2022-11-20T18:30:14;100813.08;;;-3.50;100.00
57050;BME280;42935;50.966;16.992;2022-11-20T18:33:26;100816.77;;;-3.52;100.00
57050;BME280;42935;50.966;16.992;2022-11-20T18:36:43;100822.24;;;-3.61;100.00
57050;BME280;42935;50.966;16.992;2022-11-20T18:39:58;100825.47;;;-3.78;100.00
57050;BME280;42935;50.966;16.992;2022-11-20T18:43:48;100827.73;;;-3.79;100.00
57050;BME280;42935;50.966;16.992;2022-11-20T18:47:44;100844.31;;;-4.11;100.00